Accueil
METAR-TAF:

METAR-TAF

Aéroports :

Fairford, Angleterre

latitude: 51-41N, longitude: 001-47W, altitude: 87 m

Observation

Le bulletin a été fait il y a 30 minutes, à 01:56 UTC
Vent 12 kt de sud/sud-ouest
Température 17°C
Humidité 94%
Pression 1019 hPa
Visibilité 10 km ou plus
Ciel couvert à une hauteur de 1000 ft

METAR: EGVA 190156Z AUTO 21012KT 9999 OVC010 17/16 A3008 RMK AO2 OVC V BKN CIG 009 RWY09 SLP187 T01690156 $

Heure: 03:26 (02:26 UTC)


TAF: absent

Observations et prévisions météorologiques de plus de 4000 aéroports (messages METAR et TAF).

Les stations disponibles sont représentées par des disques jaunes et rouges sur la carte.

Passer la souris dessus pour voir le nom de la station.

Cliquer dessus pour voir les observations et prévisions météorologiques.

Pour changer de carte: cliquez sur les boutons verts avec une croix noire pour zoomer, sur le bouton vert avec un tiret pour effectuer un zoom arrière, ou sur les flèches vertes pour les cartes adjacentes.


METAR-TAF: